12°C Temp
12°C Dewpoint
% Humidity
Temperature
13 KM/H
8 MPH
7 KTS
360°
Due North

Wind Speed
Lluvia Ligera
Pressure 1013.92 (hPa) - 29.94 (in)
Visibility 2.2 (mi) - 3.5 (km)

Current Conditions
LEVC
Location 70(km)
Metar :LEVC 182030Z 36007KT 330V030 3500 SHRA SCT010 FEW015CB BKN020 12/12 Q1014 NOSIG
Thu 18th April 22:30 pm

Airport
  Metar Aviation API Data Provided by https://www.checkwx.com/ PHP scripts by weather34.com ©2019